Time;durP1;ratioP1;P1;durP2;ratioP2;P2;SDS_P1;SDS_P2;PMS_P1;PMS_P2;Temp;Humidity;BMP_temperature;BMP_pressure;BME280_temperature;BME280_humidity;BME280_pressure;Samples;Min_cycle;Max_cycle;Signal;HPM_P1;HPM_P2
2021/08/17 00:01:04;;;;;;;6.65;3.45;;;13.80;99.90;;;;;;4900773;29;20031;-93
2021/08/17 00:03:30;;;;;;;4.45;2.97;;;13.80;99.90;;;;;;4901647;29;20028;-93
2021/08/17 00:05:56;;;;;;;7.13;3.63;;;13.80;99.90;;;;;;4902211;29;20582;-93
2021/08/17 00:08:22;;;;;;;5.38;2.80;;;13.80;99.90;;;;;;4904730;29;20032;-93
2021/08/17 00:10:48;;;;;;;4.93;2.80;;;13.80;99.90;;;;;;4919942;29;20506;-93
2021/08/17 00:13:13;;;;;;;3.72;2.88;;;13.80;99.90;;;;;;4904254;29;20032;-94
2021/08/17 00:15:39;;;;;;;7.00;3.10;;;13.80;99.90;;;;;;4904351;29;20032;-94
2021/08/17 00:18:05;;;;;;;8.38;3.10;;;13.80;99.90;;;;;;4903865;29;20087;-94
2021/08/17 00:20:31;;;;;;;7.22;2.92;;;13.80;99.90;;;;;;4904614;29;20493;-92
2021/08/17 00:22:56;;;;;;;6.45;3.05;;;13.70;99.90;;;;;;4904218;29;20036;-93
2021/08/17 00:25:22;;;;;;;3.47;2.58;;;13.70;99.90;;;;;;4919956;29;20176;-94
2021/08/17 00:27:48;;;;;;;3.08;2.47;;;13.70;99.90;;;;;;4903878;29;20027;-93
2021/08/17 00:30:17;;;;;;;7.88;2.85;;;13.70;99.90;;;;;;4903925;29;20106;-93
2021/08/17 00:32:42;;;;;;;5.10;2.85;;;13.70;99.90;;;;;;4904090;29;20036;-93
2021/08/17 00:35:08;;;;;;;6.55;3.22;;;13.70;99.90;;;;;;4903792;29;20058;-92
2021/08/17 00:37:34;;;;;;;5.97;2.58;;;13.70;99.90;;;;;;4903561;29;20565;-93
2021/08/17 00:40:00;;;;;;;6.32;2.78;;;13.70;99.90;;;;;;4919439;29;20070;-92
2021/08/17 00:42:29;;;;;;;3.75;2.60;;;13.70;99.90;;;;;;4903512;29;20028;-95
2021/08/17 00:44:55;;;;;;;6.03;2.78;;;13.70;99.90;;;;;;4903612;29;20494;-94
2021/08/17 00:47:20;;;;;;;7.07;3.08;;;13.70;99.90;;;;;;4903638;29;20035;-94
2021/08/17 00:49:46;;;;;;;6.43;3.03;;;13.70;99.90;;;;;;4904040;29;20032;-91
2021/08/17 00:52:13;;;;;;;5.75;2.92;;;13.70;99.90;;;;;;4903771;29;20087;-95
2021/08/17 00:54:45;;;;;;;5.15;2.95;;;13.70;99.90;;;;;;4919128;29;20040;-93
2021/08/17 00:57:14;;;;;;;11.23;4.10;;;13.70;99.90;;;;;;4903479;29;20036;-94
2021/08/17 00:59:41;;;;;;;7.18;2.85;;;13.70;99.90;;;;;;4918662;29;20056;-94
2021/08/17 01:02:07;;;;;;;9.40;3.08;;;13.70;99.90;;;;;;4903221;29;20036;-94
2021/08/17 01:04:34;;;;;;;5.70;3.25;;;13.70;99.90;;;;;;4903143;29;20490;-94
2021/08/17 01:07:04;;;;;;;3.78;2.80;;;13.70;99.90;;;;;;4902868;29;20106;-93
2021/08/17 01:09:30;;;;;;;10.63;2.67;;;13.70;99.90;;;;;;4903264;29;20047;-93
2021/08/17 01:11:59;;;;;;;5.30;2.50;;;13.70;99.90;;;;;;4903276;29;20032;-93
2021/08/17 01:14:25;;;;;;;4.68;2.88;;;13.70;99.90;;;;;;4903243;29;20028;-93
2021/08/17 01:16:50;;;;;;;5.50;3.17;;;13.60;99.90;;;;;;4917865;29;20036;-93
2021/08/17 01:19:20;;;;;;;5.78;2.80;;;13.70;99.90;;;;;;4902667;29;20047;-93
2021/08/17 01:21:47;;;;;;;5.57;2.67;;;13.60;99.90;;;;;;4903044;29;20028;-91
2021/08/17 01:24:13;;;;;;;8.98;2.60;;;13.60;99.90;;;;;;4902982;29;20040;-93
2021/08/17 01:26:39;;;;;;;10.20;3.58;;;13.60;99.90;;;;;;4902960;29;20099;-95
2021/08/17 01:29:04;;;;;;;7.38;3.47;;;13.60;99.90;;;;;;4903243;29;20024;-94
2021/08/17 01:31:31;;;;;;;8.27;3.20;;;13.70;99.90;;;;;;4902758;29;20024;-93
2021/08/17 01:33:57;;;;;;;8.90;3.97;;;13.60;99.90;;;;;;4918065;29;20099;-93
2021/08/17 01:36:23;;;;;;;7.22;3.60;;;13.60;99.90;;;;;;4886453;29;20025;-93
2021/08/17 01:38:51;;;;;;;7.30;3.10;;;13.70;99.90;;;;;;4902039;29;20083;-93
2021/08/17 01:41:17;;;;;;;6.68;3.05;;;13.60;99.90;;;;;;4906550;29;20021;-93
2021/08/17 01:43:44;;;;;;;5.55;2.70;;;13.70;99.90;;;;;;4906194;29;20016;-94
2021/08/17 01:46:11;;;;;;;7.88;2.92;;;13.70;99.90;;;;;;4907370;29;20109;-93
2021/08/17 01:48:37;;;;;;;7.47;3.22;;;13.70;99.90;;;;;;4906997;29;20052;-94
2021/08/17 01:51:06;;;;;;;6.00;3.03;;;13.70;99.90;;;;;;4916851;29;20029;-94
2021/08/17 01:53:33;;;;;;;8.38;3.10;;;13.70;99.90;;;;;;4898231;29;20035;-92
2021/08/17 01:56:22;;;;;;;4.57;2.55;;;13.70;99.90;;;;;;4898026;29;20217;-93
2021/08/17 01:58:48;;;;;;;5.03;2.55;;;13.70;99.90;;;;;;4895170;29;20036;-94
2021/08/17 02:01:14;;;;;;;4.75;2.28;;;13.70;99.90;;;;;;4894185;29;20071;-93
2021/08/17 02:03:40;;;;;;;6.18;2.60;;;13.70;99.90;;;;;;4891403;29;20052;-93
2021/08/17 02:06:07;;;;;;;6.22;2.10;;;13.70;99.90;;;;;;4888907;29;20038;-92
2021/08/17 02:08:33;;;;;;;4.85;2.65;;;13.70;99.90;;;;;;4886798;29;20040;-94
2021/08/17 02:11:01;;;;;;;2.25;1.90;;;13.60;99.90;;;;;;4887058;29;20032;-94
2021/08/17 02:13:28;;;;;;;8.15;2.00;;;13.70;99.90;;;;;;4885304;29;20111;-94
2021/08/17 02:15:55;;;;;;;3.15;2.15;;;13.60;99.90;;;;;;4885359;29;20033;-93
2021/08/17 02:18:21;;;;;;;5.10;2.00;;;13.60;99.90;;;;;;4885541;29;20461;-93
2021/08/17 02:20:47;;;;;;;4.43;2.00;;;13.70;99.90;;;;;;4885206;29;20108;-93
2021/08/17 02:23:13;;;;;;;4.43;2.53;;;13.70;99.90;;;;;;4884862;29;20029;-93
2021/08/17 02:25:39;;;;;;;6.05;2.22;;;13.70;99.90;;;;;;4884510;29;20041;-93
2021/08/17 02:28:05;;;;;;;3.45;2.20;;;13.70;99.90;;;;;;4884384;29;20520;-93
2021/08/17 02:30:31;;;;;;;6.38;2.33;;;13.70;99.90;;;;;;4884521;29;20060;-94
2021/08/17 02:32:56;;;;;;;5.68;2.33;;;13.70;99.90;;;;;;4884512;29;20055;-94
2021/08/17 02:35:22;;;;;;;5.07;1.95;;;13.70;99.90;;;;;;4896533;29;20107;-94
2021/08/17 02:37:48;;;;;;;3.85;2.05;;;13.70;99.90;;;;;;4918505;29;20044;-94
2021/08/17 02:40:14;;;;;;;2.03;1.83;;;13.70;99.90;;;;;;4902654;29;20068;-93
2021/08/17 02:42:40;;;;;;;5.80;2.58;;;13.70;99.90;;;;;;4902135;29;20084;-94
2021/08/17 02:45:06;;;;;;;5.47;2.13;;;13.70;99.90;;;;;;4902622;29;20024;-94
2021/08/17 02:47:33;;;;;;;3.42;2.20;;;13.70;99.90;;;;;;4901794;29;20028;-95
2021/08/17 02:49:59;;;;;;;7.28;2.55;;;13.70;99.90;;;;;;4902415;29;20036;-95
2021/08/17 02:52:24;;;;;;;3.40;2.20;;;13.70;99.90;;;;;;4902008;29;20036;-94
2021/08/17 02:54:51;;;;;;;5.53;1.45;;;13.70;99.90;;;;;;4917350;29;20123;-94
2021/08/17 02:57:18;;;;;;;4.43;1.80;;;13.70;99.90;;;;;;4902031;29;20040;-92
2021/08/17 02:59:44;;;;;;;3.10;1.30;;;13.70;99.90;;;;;;4902033;29;20501;-94
2021/08/17 03:02:12;;;;;;;2.60;1.10;;;13.70;99.90;;;;;;4902282;29;20028;-93
2021/08/17 03:04:38;;;;;;;3.72;1.25;;;13.70;99.90;;;;;;4886604;29;20398;-93
2021/08/17 03:07:06;;;;;;;2.17;1.45;;;13.70;99.90;;;;;;4901336;29;20031;-95
2021/08/17 03:09:32;;;;;;;2.28;0.90;;;13.70;99.90;;;;;;4901929;29;20024;-94
2021/08/17 03:11:58;;;;;;;2.00;1.00;;;13.70;99.90;;;;;;4917317;29;20059;-94
2021/08/17 03:14:24;;;;;;;1.85;1.10;;;13.70;99.90;;;;;;4901142;29;20031;-93
2021/08/17 03:16:50;;;;;;;2.17;1.20;;;13.70;99.90;;;;;;4901328;29;20040;-93
2021/08/17 03:19:16;;;;;;;2.78;1.40;;;13.70;99.90;;;;;;4901130;29;20096;-94
2021/08/17 03:21:44;;;;;;;4.72;1.20;;;13.70;99.90;;;;;;4901299;29;20430;-94
2021/08/17 03:24:12;;;;;;;2.38;1.10;;;13.70;99.90;;;;;;4901132;29;20032;-94
2021/08/17 03:26:38;;;;;;;5.35;1.65;;;13.70;99.90;;;;;;4900712;29;20036;-93
2021/08/17 03:29:03;;;;;;;2.78;1.30;;;13.70;99.90;;;;;;4916529;29;20044;-93
2021/08/17 03:31:29;;;;;;;3.05;1.00;;;13.70;99.90;;;;;;4901097;29;20331;-94
2021/08/17 03:33:55;;;;;;;6.35;1.55;;;13.70;99.90;;;;;;4899916;29;20028;-92
2021/08/17 03:36:23;;;;;;;4.40;1.90;;;13.70;99.90;;;;;;4882181;29;20475;-93
2021/08/17 03:38:49;;;;;;;3.47;1.80;;;13.70;99.90;;;;;;4882110;29;20044;-93
2021/08/17 03:41:14;;;;;;;5.45;1.50;;;13.70;99.90;;;;;;4881739;29;20033;-93
2021/08/17 03:43:40;;;;;;;3.08;1.60;;;13.70;99.90;;;;;;4882110;29;20040;-93
2021/08/17 03:46:06;;;;;;;3.40;1.35;;;13.70;99.90;;;;;;4882667;29;20387;-95
2021/08/17 03:48:32;;;;;;;1.67;1.10;;;13.70;99.90;;;;;;4882454;29;20028;-94
2021/08/17 03:50:58;;;;;;;3.15;1.00;;;13.70;99.90;;;;;;4881657;29;20029;-96
2021/08/17 03:53:25;;;;;;;2.38;0.77;;;13.70;99.90;;;;;;4882310;29;20031;-94
2021/08/17 03:55:50;;;;;;;0.77;0.75;;;13.70;99.90;;;;;;4882014;29;20040;-94
2021/08/17 03:58:16;;;;;;;1.38;0.65;;;13.70;99.90;;;;;;4882355;29;20044;-94
2021/08/17 04:00:42;;;;;;;2.40;0.73;;;13.70;99.90;;;;;;4882231;29;20021;-94
2021/08/17 04:03:08;;;;;;;0.80;0.70;;;13.70;99.90;;;;;;4882159;29;20029;-94
2021/08/17 04:05:34;;;;;;;2.65;0.52;;;13.70;99.90;;;;;;4882213;29;20056;-93
2021/08/17 04:07:59;;;;;;;3.17;0.70;;;13.70;99.90;;;;;;4882329;29;20447;-95
2021/08/17 04:10:25;;;;;;;2.35;0.82;;;13.60;99.90;;;;;;4882283;29;20096;-94
2021/08/17 04:12:51;;;;;;;1.33;0.80;;;13.60;99.90;;;;;;4881820;29;20426;-94
2021/08/17 04:15:16;;;;;;;0.90;0.50;;;13.60;99.90;;;;;;4881864;29;20037;-93
2021/08/17 04:17:42;;;;;;;1.25;0.70;;;13.60;99.90;;;;;;4882043;29;20057;-93
2021/08/17 04:20:11;;;;;;;3.17;1.77;;;13.60;99.90;;;;;;4882344;29;20036;-93
2021/08/17 04:22:38;;;;;;;0.60;0.60;;;13.60;99.90;;;;;;4866919;29;20395;-93
2021/08/17 04:25:04;;;;;;;1.02;0.60;;;13.60;99.90;;;;;;4881817;29;20468;-93
2021/08/17 04:27:30;;;;;;;1.73;0.70;;;13.60;99.90;;;;;;4882374;29;20043;-94
2021/08/17 04:29:58;;;;;;;0.50;0.50;;;13.60;99.90;;;;;;4883950;29;20056;-94
2021/08/17 04:32:24;;;;;;;1.40;0.40;;;13.60;99.90;;;;;;4884425;29;20040;-93
2021/08/17 04:34:49;;;;;;;1.60;0.57;;;13.60;99.90;;;;;;4893708;29;20052;-95
2021/08/17 04:37:15;;;;;;;1.35;0.30;;;13.60;99.90;;;;;;4912436;29;20033;-93
2021/08/17 04:39:41;;;;;;;0.30;0.30;;;13.60;99.90;;;;;;4912221;29;20037;-94
2021/08/17 04:42:07;;;;;;;0.50;0.50;;;13.60;99.90;;;;;;4909880;29;20394;-95
2021/08/17 04:44:33;;;;;;;0.20;0.20;;;13.60;99.90;;;;;;4906583;29;20028;-95
2021/08/17 04:47:01;;;;;;;0.30;0.20;;;13.60;99.90;;;;;;4903000;29;20037;-93
2021/08/17 04:49:26;;;;;;;0.30;0.30;;;13.60;99.90;;;;;;4916411;29;20025;-93
2021/08/17 04:51:52;;;;;;;0.50;0.28;;;13.60;99.90;;;;;;4899573;29;20467;-94
2021/08/17 04:54:18;;;;;;;2.10;0.30;;;13.60;99.90;;;;;;4901773;29;20048;-93
2021/08/17 04:56:43;;;;;;;1.38;0.30;;;13.60;99.90;;;;;;4901506;29;20487;-95
2021/08/17 04:59:09;;;;;;;1.75;0.47;;;13.60;99.90;;;;;;4901581;29;20067;-93
2021/08/17 05:01:35;;;;;;;0.45;0.40;;;13.60;99.90;;;;;;4901033;29;20036;-93
2021/08/17 05:04:03;;;;;;;1.17;0.38;;;13.60;99.90;;;;;;4901579;29;20125;-93
2021/08/17 05:06:28;;;;;;;0.88;0.50;;;13.60;99.90;;;;;;4916632;29;20033;-92
2021/08/17 05:08:54;;;;;;;1.55;0.35;;;13.50;99.90;;;;;;4900928;29;20040;-93
2021/08/17 05:11:20;;;;;;;0.20;0.20;;;13.60;99.90;;;;;;4900665;29;20032;-93
2021/08/17 05:13:45;;;;;;;0.20;0.20;;;13.50;99.90;;;;;;4900548;29;20029;-92
2021/08/17 05:16:11;;;;;;;0.70;0.52;;;13.50;99.90;;;;;;4900358;29;20383;-93
2021/08/17 05:18:37;;;;;;;0.52;0.50;;;13.50;99.90;;;;;;4900339;29;20041;-93
2021/08/17 05:21:03;;;;;;;1.70;0.47;;;13.50;99.90;;;;;;4900752;29;20032;-93
2021/08/17 05:23:29;;;;;;;0.70;0.22;;;13.50;99.90;;;;;;4916350;29;20039;-92
2021/08/17 05:25:55;;;;;;;1.50;0.57;;;13.60;99.90;;;;;;4900778;29;20064;-93
2021/08/17 05:28:22;;;;;;;0.30;0.30;;;13.60;99.90;;;;;;4900728;29;20028;-93
2021/08/17 05:30:48;;;;;;;0.73;0.43;;;13.60;99.90;;;;;;4900085;29;20464;-93
2021/08/17 05:33:14;;;;;;;1.70;0.40;;;13.60;99.90;;;;;;4900142;29;20044;-92
2021/08/17 05:35:41;;;;;;;1.40;0.50;;;13.60;99.90;;;;;;4900012;29;20049;-93
2021/08/17 05:38:07;;;;;;;0.68;0.43;;;13.60;99.90;;;;;;4915785;29;20498;-93
2021/08/17 05:40:32;;;;;;;0.30;0.30;;;13.60;99.90;;;;;;4899973;29;20506;-93
2021/08/17 05:42:58;;;;;;;0.52;0.15;;;13.60;99.90;;;;;;4900271;29;20029;-94
2021/08/17 05:45:24;;;;;;;0.30;0.30;;;13.60;99.90;;;;;;4899751;29;20024;-92
2021/08/17 05:47:52;;;;;;;1.08;0.30;;;13.70;99.90;;;;;;4899991;29;20043;-94
2021/08/17 05:50:17;;;;;;;3.13;0.40;;;13.70;99.90;;;;;;4916419;29;20550;-93
2021/08/17 05:52:44;;;;;;;1.75;0.40;;;13.80;99.90;;;;;;4901096;29;20029;-92
2021/08/17 05:55:11;;;;;;;0.45;0.25;;;13.70;99.90;;;;;;4903126;29;20143;-93
2021/08/17 05:57:37;;;;;;;0.32;0.20;;;13.80;99.90;;;;;;4920261;29;20097;-94
2021/08/17 06:00:09;;;;;;;0.30;0.30;;;13.80;99.90;;;;;;4922020;29;20096;-93
2021/08/17 06:02:35;;;;;;;1.30;0.32;;;13.80;99.90;;;;;;4922455;29;20045;-93
2021/08/17 06:05:01;;;;;;;0.77;0.38;;;13.80;99.90;;;;;;4937414;29;20040;-93
2021/08/17 06:07:26;;;;;;;1.85;0.20;;;13.80;99.90;;;;;;4922114;29;20060;-93
2021/08/17 06:09:52;;;;;;;0.35;0.35;;;13.80;99.90;;;;;;4908811;29;20036;-92
2021/08/17 06:12:18;;;;;;;0.20;0.20;;;13.80;99.90;;;;;;4904275;29;20029;-92
2021/08/17 06:14:43;;;;;;;0.55;0.38;;;13.80;99.90;;;;;;4904415;29;20036;-93
2021/08/17 06:17:09;;;;;;;0.40;0.30;;;13.80;99.90;;;;;;4903004;29;20036;-92
2021/08/17 06:19:35;;;;;;;0.30;0.22;;;13.80;99.90;;;;;;4901801;29;20028;-92
2021/08/17 06:22:01;;;;;;;1.35;0.20;;;13.80;99.90;;;;;;4917437;29;20031;-92
2021/08/17 06:24:27;;;;;;;4.22;0.47;;;13.80;99.90;;;;;;4901323;29;20479;-91
2021/08/17 06:26:52;;;;;;;0.77;0.50;;;13.80;99.90;;;;;;4901154;29;20080;-92
2021/08/17 06:29:18;;;;;;;2.17;0.50;;;13.90;99.90;;;;;;4916678;29;20127;-91
2021/08/17 06:31:44;;;;;;;0.60;0.40;;;13.90;99.90;;;;;;4899951;29;20029;-93
2021/08/17 06:34:12;;;;;;;1.08;0.55;;;13.90;99.90;;;;;;4900486;29;20056;-93
2021/08/17 06:36:37;;;;;;;0.68;0.32;;;13.90;99.90;;;;;;4885263;29;20044;-92
2021/08/17 06:39:07;;;;;;;3.90;0.40;;;13.90;99.90;;;;;;4885115;29;20057;-92
2021/08/17 06:41:34;;;;;;;1.25;0.50;;;13.90;99.90;;;;;;4885750;29;20021;-93
2021/08/17 06:44:00;;;;;;;0.50;0.40;;;14.00;99.90;;;;;;4884647;29;20037;-92
2021/08/17 06:46:27;;;;;;;1.17;0.45;;;14.00;99.90;;;;;;4884569;29;20021;-93
2021/08/17 06:48:53;;;;;;;1.52;0.60;;;14.00;99.90;;;;;;4884436;29;20092;-92
2021/08/17 06:51:18;;;;;;;1.67;0.50;;;14.00;99.90;;;;;;4885137;29;20040;-92
2021/08/17 06:53:44;;;;;;;2.30;0.77;;;14.00;99.90;;;;;;4884916;29;20099;-92
2021/08/17 06:56:10;;;;;;;2.20;0.90;;;14.00;99.90;;;;;;4884680;29;20029;-92
2021/08/17 06:58:36;;;;;;;0.57;0.52;;;14.00;99.90;;;;;;4884220;29;20037;-92
2021/08/17 07:01:02;;;;;;;1.42;0.60;;;14.00;99.90;;;;;;4884146;29;20040;-92
2021/08/17 07:03:28;;;;;;;0.80;0.50;;;14.00;99.90;;;;;;4884089;29;20028;-92
2021/08/17 07:05:54;;;;;;;0.57;0.50;;;14.10;99.90;;;;;;4883606;29;20028;-91
2021/08/17 07:08:20;;;;;;;1.85;0.47;;;14.10;99.90;;;;;;4884123;29;20028;-91
2021/08/17 07:10:46;;;;;;;1.15;0.40;;;14.10;99.90;;;;;;4883500;29;20067;-92
2021/08/17 07:13:12;;;;;;;0.40;0.40;;;14.10;99.90;;;;;;4883114;29;20026;-93
2021/08/17 07:15:39;;;;;;;0.55;0.55;;;14.20;99.90;;;;;;4883615;29;20080;-93
2021/08/17 07:18:05;;;;;;;1.30;0.60;;;14.10;99.90;;;;;;4884691;29;20041;-93
2021/08/17 07:20:31;;;;;;;1.10;0.50;;;14.20;99.90;;;;;;4885423;29;20057;-91
2021/08/17 07:22:56;;;;;;;1.27;0.90;;;14.20;99.90;;;;;;4891717;29;20032;-92
2021/08/17 07:25:22;;;;;;;0.52;0.30;;;14.30;99.90;;;;;;4893990;29;20024;-94
2021/08/17 07:27:48;;;;;;;1.33;0.52;;;14.30;99.90;;;;;;4894750;29;20033;-93
2021/08/17 07:30:14;;;;;;;0.57;0.30;;;14.40;99.90;;;;;;4891181;29;20035;-91
2021/08/17 07:32:41;;;;;;;1.17;0.60;;;14.40;99.90;;;;;;4889207;29;20037;-93
2021/08/17 07:35:09;;;;;;;1.83;0.60;;;14.40;99.90;;;;;;4892755;29;20053;-91
2021/08/17 07:37:35;;;;;;;0.60;0.40;;;14.40;99.90;;;;;;4900131;29;20403;-92
2021/08/17 07:40:02;;;;;;;0.82;0.52;;;14.40;99.90;;;;;;4899498;29;20386;-92
2021/08/17 07:42:27;;;;;;;1.92;0.50;;;14.40;99.90;;;;;;4899619;29;20072;-93
2021/08/17 07:44:53;;;;;;;0.77;0.70;;;14.50;99.90;;;;;;4899303;29;20028;-92
2021/08/17 07:47:19;;;;;;;1.27;0.70;;;14.50;99.90;;;;;;4898662;29;20033;-93
2021/08/17 07:49:44;;;;;;;1.15;0.60;;;14.40;99.90;;;;;;4914852;29;20033;-92
2021/08/17 07:52:10;;;;;;;0.82;0.50;;;14.50;99.90;;;;;;4899211;29;20028;-94
2021/08/17 07:54:37;;;;;;;2.10;0.68;;;14.50;99.90;;;;;;4899249;29;20056;-93
2021/08/17 07:57:03;;;;;;;1.25;0.60;;;14.50;99.90;;;;;;4899937;29;20042;-92
2021/08/17 07:59:29;;;;;;;2.97;0.38;;;14.50;99.90;;;;;;4900772;29;20033;-93
2021/08/17 08:01:55;;;;;;;0.45;0.45;;;14.50;99.90;;;;;;4898878;29;20025;-93
2021/08/17 08:04:20;;;;;;;2.22;0.77;;;14.50;99.90;;;;;;4900497;29;20032;-93
2021/08/17 08:06:46;;;;;;;1.10;0.70;;;14.50;99.90;;;;;;4915105;29;20036;-93
2021/08/17 08:09:12;;;;;;;1.67;0.80;;;14.60;99.90;;;;;;4899396;29;20061;-94
2021/08/17 08:11:38;;;;;;;1.55;0.70;;;14.60;99.90;;;;;;4898863;29;20033;-93
2021/08/17 08:14:03;;;;;;;2.80;0.80;;;14.60;99.90;;;;;;4899354;29;20599;-93
2021/08/17 08:16:29;;;;;;;2.63;1.00;;;14.60;99.90;;;;;;4899740;29;20033;-93
2021/08/17 08:18:55;;;;;;;4.15;1.33;;;14.60;99.90;;;;;;4915419;29;20047;-91
2021/08/17 08:21:20;;;;;;;1.63;0.90;;;14.60;99.90;;;;;;4899270;29;20025;-93
2021/08/17 08:23:46;;;;;;;0.93;0.63;;;14.60;99.90;;;;;;4899853;29;20427;-92
2021/08/17 08:26:12;;;;;;;2.70;1.05;;;14.60;99.90;;;;;;4900126;29;20031;-92
2021/08/17 08:28:37;;;;;;;2.95;1.02;;;14.60;99.90;;;;;;4903253;29;20041;-92
2021/08/17 08:31:03;;;;;;;4.72;1.13;;;14.60;99.90;;;;;;4902654;29;20028;-92
2021/08/17 08:33:29;;;;;;;2.78;1.20;;;14.60;99.90;;;;;;4902451;29;20033;-93
2021/08/17 08:35:55;;;;;;;2.38;1.10;;;14.50;99.90;;;;;;4918951;29;20100;-92
2021/08/17 08:38:21;;;;;;;3.22;1.10;;;14.50;99.90;;;;;;4903381;29;20600;-94
2021/08/17 08:40:49;;;;;;;2.33;0.85;;;14.50;99.90;;;;;;4903764;29;20031;-92
2021/08/17 08:43:20;;;;;;;2.20;1.00;;;14.50;99.90;;;;;;4904680;29;20024;-93
2021/08/17 08:45:47;;;;;;;1.92;1.10;;;14.50;99.90;;;;;;4903022;29;20029;-92
2021/08/17 08:48:15;;;;;;;1.55;0.80;;;14.50;99.90;;;;;;4902799;29;20044;-93
2021/08/17 08:50:43;;;;;;;2.65;0.95;;;14.50;99.90;;;;;;4917547;29;20024;-92
2021/08/17 08:53:10;;;;;;;2.22;0.77;;;14.50;99.90;;;;;;4902470;29;20032;-93
2021/08/17 08:55:35;;;;;;;1.20;0.60;;;14.60;99.90;;;;;;4901902;29;20039;-92
2021/08/17 08:58:01;;;;;;;1.90;0.93;;;14.60;99.90;;;;;;4917947;29;20025;-92
2021/08/17 09:00:27;;;;;;;0.65;0.60;;;14.60;99.90;;;;;;4902396;29;20043;-94
2021/08/17 09:02:52;;;;;;;1.27;1.00;;;14.60;99.90;;;;;;4902358;29;20168;-92
2021/08/17 09:05:21;;;;;;;1.00;0.55;;;14.60;99.90;;;;;;4902429;29;20045;-93
2021/08/17 09:07:47;;;;;;;1.48;0.73;;;14.60;99.90;;;;;;4907870;29;20057;-93
2021/08/17 09:10:21;;;;;;;1.55;0.70;;;14.60;99.90;;;;;;4902944;29;20055;-93
2021/08/17 09:12:56;;;;;;;1.10;0.73;;;14.60;99.90;;;;;;4916796;29;20124;-95
2021/08/17 09:15:27;;;;;;;1.13;0.90;;;14.60;99.90;;;;;;4900538;29;20041;-93
2021/08/17 09:18:10;;;;;;;1.73;0.70;;;14.60;99.90;;;;;;4900550;29;20036;-95
2021/08/17 09:20:39;;;;;;;1.42;0.90;;;14.60;99.90;;;;;;4901937;29;20052;-94
2021/08/17 09:23:24;;;;;;;2.05;0.70;;;14.60;99.90;;;;;;4902083;29;20024;-92
2021/08/17 09:25:54;;;;;;;1.65;0.90;;;14.60;99.90;;;;;;4901150;29;20069;-93
2021/08/17 09:28:27;;;;;;;4.47;0.90;;;14.60;99.90;;;;;;4900220;29;20032;-94
2021/08/17 09:30:53;;;;;;;2.88;1.90;;;14.60;99.90;;;;;;4900600;29;20079;-94
2021/08/17 09:33:22;;;;;;;2.78;0.73;;;14.60;99.90;;;;;;4900349;29;20116;-92
2021/08/17 09:35:55;;;;;;;2.83;1.20;;;14.60;99.90;;;;;;4900626;29;20064;-92
2021/08/17 09:38:21;;;;;;;2.60;1.02;;;14.60;99.90;;;;;;4899969;29;20064;-94
2021/08/17 09:40:46;;;;;;;4.38;1.30;;;14.70;99.90;;;;;;4900474;29;20032;-93
2021/08/17 09:43:20;;;;;;;1.30;0.80;;;14.70;99.90;;;;;;4916692;29;20510;-94
2021/08/17 09:45:50;;;;;;;1.17;0.90;;;14.80;99.90;;;;;;4900985;29;20092;-94
2021/08/17 09:48:30;;;;;;;1.00;0.90;;;14.80;99.90;;;;;;4900639;29;20025;-93
2021/08/17 09:50:56;;;;;;;1.70;0.90;;;14.80;99.90;;;;;;4900861;29;20044;-94
2021/08/17 09:53:23;;;;;;;1.25;0.80;;;14.80;99.90;;;;;;4900583;29;20068;-94
2021/08/17 09:55:55;;;;;;;2.80;0.90;;;14.80;99.90;;;;;;4900427;29;20061;-95
2021/08/17 09:58:31;;;;;;;1.38;0.95;;;14.80;99.90;;;;;;4900866;29;20470;-94
2021/08/17 10:01:00;;;;;;;1.10;0.80;;;14.80;99.90;;;;;;4919124;29;20036;-95
2021/08/17 10:03:27;;;;;;;2.63;0.80;;;14.80;99.90;;;;;;4903300;29;20500;-95
2021/08/17 10:05:53;;;;;;;0.85;0.70;;;14.90;99.90;;;;;;4903213;29;20363;-96
2021/08/17 10:08:21;;;;;;;1.48;0.80;;;14.90;99.90;;;;;;4903616;29;20036;-95
2021/08/17 10:10:49;;;;;;;1.50;0.70;;;14.90;99.90;;;;;;4907968;29;20053;-94
2021/08/17 10:13:18;;;;;;;0.65;0.65;;;14.90;99.90;;;;;;4914690;29;20040;-95
2021/08/17 10:15:46;;;;;;;2.20;0.93;;;15.00;99.90;;;;;;4920455;29;20068;-95
2021/08/17 10:18:16;;;;;;;3.22;0.90;;;15.10;99.90;;;;;;4934326;29;20051;-94
2021/08/17 10:20:44;;;;;;;0.73;0.63;;;15.10;99.90;;;;;;4920756;29;20032;-94
2021/08/17 10:23:14;;;;;;;0.82;0.73;;;15.20;99.90;;;;;;4918491;29;20313;-94
2021/08/17 10:25:57;;;;;;;2.45;1.20;;;15.20;99.90;;;;;;4916485;29;20025;-94
2021/08/17 10:28:30;;;;;;;1.20;0.80;;;15.30;99.90;;;;;;4907192;29;20040;-94
2021/08/17 10:30:58;;;;;;;0.80;0.80;;;15.50;99.90;;;;;;4906191;29;20092;-96
2021/08/17 10:33:46;;;;;;;2.35;0.88;;;15.60;99.90;;;;;;4902060;29;20045;-95
2021/08/17 10:36:42;;;;;;;3.42;0.80;;;15.60;99.90;;;;;;4901255;29;20088;-94
2021/08/17 10:39:16;;;;;;;2.70;0.60;;;15.60;99.90;;;;;;4900374;29;20041;-94
2021/08/17 10:41:47;;;;;;;2.60;0.70;;;15.70;99.90;;;;;;4900055;29;20049;-94
2021/08/17 10:44:17;;;;;;;2.67;0.93;;;15.70;99.90;;;;;;4899892;29;20031;-94
2021/08/17 10:46:54;;;;;;;3.08;0.90;;;15.70;99.90;;;;;;4916994;29;20028;-94
2021/08/17 10:49:27;;;;;;;2.08;1.05;;;15.80;99.90;;;;;;4899400;29;20051;-95
2021/08/17 10:51:59;;;;;;;2.70;0.93;;;15.80;99.90;;;;;;4900991;29;20056;-95
2021/08/17 10:54:26;;;;;;;1.27;1.00;;;15.90;99.90;;;;;;4899633;29;20031;-93
2021/08/17 10:56:52;;;;;;;1.95;0.77;;;15.90;99.90;;;;;;4899459;29;20089;-95
2021/08/17 10:59:40;;;;;;;2.90;0.90;;;16.00;99.90;;;;;;4899975;29;20036;-93
2021/08/17 11:02:07;;;;;;;3.85;1.23;;;16.00;99.90;;;;;;4899347;29;20088;-94
2021/08/17 11:04:40;;;;;;;2.53;1.00;;;16.10;99.90;;;;;;4899188;29;20183;-94
2021/08/17 11:07:32;;;;;;;1.73;1.00;;;16.10;99.90;;;;;;4898996;29;20048;-94
2021/08/17 11:10:02;;;;;;;1.33;0.90;;;16.20;99.90;;;;;;4899306;29;20289;-94
2021/08/17 11:12:38;;;;;;;2.15;1.00;;;16.20;99.90;;;;;;4898859;29;20024;-95
2021/08/17 11:15:07;;;;;;;2.40;0.90;;;16.30;99.90;;;;;;4899058;29;20028;-95
2021/08/17 11:17:33;;;;;;;0.95;0.60;;;16.40;99.90;;;;;;4914860;29;20506;-93
2021/08/17 11:19:59;;;;;;;3.13;0.90;;;16.40;99.90;;;;;;4898702;29;20053;-93
2021/08/17 11:22:30;;;;;;;1.40;0.82;;;16.40;99.90;;;;;;4899088;29;20139;-93
2021/08/17 11:24:58;;;;;;;0.98;0.85;;;16.50;99.90;;;;;;4899336;29;20088;-93
2021/08/17 11:27:30;;;;;;;0.85;0.70;;;16.50;99.90;;;;;;4903309;29;20036;-92
2021/08/17 11:29:56;;;;;;;1.85;0.80;;;16.50;99.90;;;;;;4905082;29;20067;-93
2021/08/17 11:32:41;;;;;;;1.40;0.70;;;16.50;99.90;;;;;;4924420;29;20033;-92
2021/08/17 11:35:08;;;;;;;3.70;0.82;;;16.50;99.90;;;;;;4924977;29;20100;-93
2021/08/17 11:37:35;;;;;;;0.60;0.60;;;16.50;99.90;;;;;;4904242;29;20033;-94
2021/08/17 11:40:05;;;;;;;2.08;1.08;;;16.50;99.90;;;;;;4903122;29;20029;-95
2021/08/17 11:42:37;;;;;;;1.40;0.90;;;16.50;99.90;;;;;;4902517;29;20029;-93
2021/08/17 11:45:09;;;;;;;3.30;0.80;;;16.40;99.90;;;;;;4918019;29;20061;-95
2021/08/17 11:47:36;;;;;;;2.22;0.73;;;16.40;99.90;;;;;;4904328;29;20033;-94
2021/08/17 11:50:06;;;;;;;1.92;0.75;;;16.40;99.90;;;;;;4902167;29;20072;-94
2021/08/17 11:52:36;;;;;;;1.13;0.80;;;16.30;99.90;;;;;;4901049;29;20474;-91
2021/08/17 11:55:07;;;;;;;1.50;0.80;;;16.30;99.90;;;;;;4902389;29;20032;-94
2021/08/17 11:57:44;;;;;;;1.80;0.70;;;16.20;99.90;;;;;;4900738;29;20300;-94
2021/08/17 12:00:19;;;;;;;1.98;0.75;;;16.20;99.90;;;;;;4899931;29;20096;-94
2021/08/17 12:02:52;;;;;;;1.95;0.82;;;16.30;99.90;;;;;;4901387;29;20028;-93
2021/08/17 12:05:20;;;;;;;1.58;0.70;;;16.30;99.90;;;;;;4903391;29;20028;-95
2021/08/17 12:07:49;;;;;;;0.47;0.40;;;16.30;99.90;;;;;;4902680;29;20171;-94
2021/08/17 12:10:17;;;;;;;1.65;0.75;;;16.30;99.90;;;;;;4902661;29;20496;-93
2021/08/17 12:13:04;;;;;;;0.80;0.73;;;16.30;99.90;;;;;;4902838;29;20036;-95
2021/08/17 12:15:45;;;;;;;1.63;0.70;;;16.30;99.90;;;;;;4903019;29;20040;-94
2021/08/17 12:18:33;;;;;;;1.45;1.10;;;16.30;99.90;;;;;;4903010;29;20037;-93
2021/08/17 12:21:00;;;;;;;1.48;0.90;;;16.20;99.90;;;;;;4901965;29;20040;-93
2021/08/17 12:23:28;;;;;;;2.53;1.00;;;16.20;99.90;;;;;;4902944;29;20036;-95
2021/08/17 12:26:14;;;;;;;2.40;0.82;;;16.20;99.90;;;;;;4901618;29;20029;-94
2021/08/17 12:28:41;;;;;;;2.10;0.80;;;16.20;99.90;;;;;;4904855;29;20044;-92
2021/08/17 12:31:11;;;;;;;1.58;1.08;;;16.20;99.90;;;;;;4904974;29;20562;-93
2021/08/17 12:33:46;;;;;;;2.78;0.88;;;16.20;99.90;;;;;;4905912;29;20032;-93
2021/08/17 12:36:11;;;;;;;2.15;0.95;;;16.30;99.90;;;;;;4905212;29;20099;-93
2021/08/17 12:38:39;;;;;;;1.33;0.85;;;16.30;99.90;;;;;;4905788;29;20491;-93
2021/08/17 12:41:05;;;;;;;1.33;0.85;;;16.30;99.90;;;;;;4906174;29;20099;-93
2021/08/17 12:43:41;;;;;;;2.65;0.90;;;16.40;99.90;;;;;;4905866;29;20033;-94
2021/08/17 12:46:16;;;;;;;1.00;0.80;;;16.40;99.90;;;;;;4907394;29;20024;-93
2021/08/17 12:48:44;;;;;;;3.08;0.90;;;16.40;99.90;;;;;;4906882;29;20052;-93